Arpin, Wisconsin
Current Conditions -  °F | °C
As of 4:54 AM on Monday 22 Dec 2014 (Local Time) from KMFI Reporting Station
Haze Haze  
Wind Chill: 25°   Ceiling: 700
Heat Index: 33°   Visibility: 4mi
Dew Point: 31°   Wind: 9mph
Humidity: 92%   Direction: 150°SSE
Pressure: 29.81"   Gusts: NA
Location:  44.54°N, 90.04°W
Report Text: KMFI 221054Z AUTO 15008KT 4SM BR OVC007 01/M01 A2981 RMK AO2 SLP110 T00061006
Loading
Personal Weather Stations






























Interactive Weather Map New forecast layout! Learn more

10-Day Weather Forecast

Advertisements
Track Severe Weather on mobile